Latest Weather Observations for Archerfield

IDQ60901

Issued at 3:11 pm EST Monday 30 March 2020 (issued every 10 minutes, with the page automatically refreshed every 10 minutes)

About weather observations | Map of Brisbane area stations | Latest observations for Brisbane area | Other Formats
Station Details ID: 040211 Name: ARCHERFIELD AIRPORT Lat: -27.57 Lon: 153.01 Height: 12.5 m
Data from the previous 72 hours. | See also: Recent months at Archerfield
Date/Time
EST
Temp
°C
App
Temp
°C
Dew
Point
°C
Rel
Hum
%
Delta-T
°C
Wind Press
QNH
hPa
Press
MSL
hPa
Rain since
9am
mm
Dir  Spd
km/h
Gust
km/h
Spd
kts
Gust
kts
30/03:00pm 28.8 28.0 18.0 52 6.9 NE 19 28 10 15 1013.7 1013.6 0.0
30/02:30pm 28.3 28.1 17.5 52 6.8 NNE 15 24 8 13 1013.8 1013.7 0.0
30/02:00pm 29.6 30.0 16.4 45 8.2 NW 9 15 5 8 1013.8 1013.7 0.0
30/01:30pm 29.7 31.3 18.2 50 7.4 SSW 7 15 4 8 1014.2 1014.1 0.0
30/01:00pm 29.1 29.5 16.3 46 8.0 NW 9 17 5 9 1014.8 1014.7 0.0
30/12:30pm 28.1 29.7 17.9 54 6.5 WNW 6 11 3 6 1015.3 1015.2 0.0
30/12:00pm 27.7 28.3 16.9 51 6.7 NNW 9 15 5 8 1015.7 1015.6 0.0
30/11:30am 27.6 29.1 17.5 54 6.4 NE 6 9 3 5 1016.4 1016.3 0.0
30/11:00am 27.3 28.7 17.8 56 6.0 NNE 7 15 4 8 1016.8 1016.7 0.0
30/10:30am 26.2 27.0 17.3 58 5.6 WNW 9 13 5 7 1017.2 1017.1 0.0
30/10:00am 25.5 27.3 18.4 65 4.5 WSW 6 9 3 5 1017.3 1017.2 0.0
30/09:30am 24.7 27.3 18.4 68 4.0 SSW 2 9 1 5 1017.3 1017.2 0.0
30/09:00am 23.8 25.7 18.9 74 3.1 SSW 7 9 4 5 1017.5 1017.4 5.6
30/08:30am 22.9 24.4 18.0 74 3.1 S 7 9 4 5 1017.4 1017.3 5.6
30/08:00am 21.9 24.6 18.7 82 2.0 SW 2 7 1 4 1017.4 1017.3 5.6
30/07:30am 20.7 22.4 18.6 88 1.3 SW 7 9 4 5 1017.5 1017.4 5.6
30/07:00am 19.5 21.1 18.2 92 0.8 SSW 7 9 4 5 1017.0 1016.9 5.6
30/06:30am 18.1 20.5 17.1 94 0.6 CALM 0 0 0 0 1016.7 1016.6 5.6
30/06:00am 17.8 20.1 16.8 94 0.6 CALM 0 0 0 0 1016.3 1016.2 5.6
30/05:30am 17.9 20.2 16.8 93 0.7 CALM 0 0 0 0 1016.2 1016.1 5.6
30/05:26am 17.8 20.1 16.7 93 0.7 CALM 0 0 0 0 1016.2 1016.1 5.6
30/05:05am 17.5 19.7 16.4 93 0.7 CALM 0 0 0 0 1016.2 1016.1 5.6
30/05:00am 17.7 19.9 16.6 93 0.7 CALM 0 0 0 0 1016.1 1016.0 5.6
30/04:30am 18.4 20.9 17.2 93 0.7 CALM 0 0 0 0 1016.0 1015.9 5.6
30/04:00am 18.5 21.0 17.3 93 0.7 CALM 0 0 0 0 1016.1 1016.0 5.6
30/03:30am 18.4 20.8 17.1 92 0.8 CALM 0 0 0 0 1016.3 1016.2 5.6
30/03:00am 18.7 21.3 17.4 92 0.8 CALM 0 0 0 0 1016.3 1016.2 5.6
30/02:30am 19.2 22.0 18.0 93 0.7 CALM 0 0 0 0 1016.7 1016.6 5.6
30/02:00am 19.1 21.9 17.9 93 0.7 CALM 0 0 0 0 1017.0 1016.9 5.6
30/01:34am 18.9 21.5 17.6 92 0.8 CALM 0 0 0 0 1017.3 1017.2 5.6
30/01:30am 19.1 21.8 17.8 92 0.8 CALM 0 0 0 0 1017.3 1017.2 5.6
30/01:00am 19.3 22.0 17.8 91 0.9 CALM 0 6 0 3 1017.8 1017.7 5.6
30/12:30am 19.7 22.5 18.0 90 1.0 CALM 0 6 0 3 1017.9 1017.8 5.6
30/12:00am 19.9 21.5 18.2 90 1.1 SSW 7 9 4 5 1017.9 1017.8 5.6
 
Date/Time
EST
Temp
°C
App
Temp
°C
Dew
Point
°C
Rel
Hum
%
Delta-T
°C
Wind Press
QNH
hPa
Press
MSL
hPa
Rain since
9am
mm
Dir  Spd
km/h
Gust
km/h
Spd
kts
Gust
kts
29/11:30pm 20.3 22.2 18.6 90 1.1 SSE 6 7 3 4 1018.0 1017.9 5.6
29/11:00pm 20.7 24.0 19.2 91 0.9 CALM 0 0 0 0 1018.2 1018.1 5.6
29/10:30pm 19.9 22.7 18.0 89 1.2 CALM 0 0 0 0 1018.3 1018.2 5.6
29/10:00pm 20.4 23.0 18.5 89 1.2 SSE 2 6 1 3 1018.4 1018.3 5.6
29/09:30pm 20.5 23.6 18.6 89 1.2 CALM 0 0 0 0 1018.7 1018.6 5.6
29/09:00pm 21.0 24.2 18.9 88 1.3 CALM 0 0 0 0 1018.7 1018.6 5.6
29/08:30pm 21.1 24.2 18.7 86 1.5 CALM 0 0 0 0 1018.5 1018.4 5.6
29/08:00pm 21.1 23.7 18.3 84 1.7 ENE 2 6 1 3 1018.4 1018.3 5.6
29/07:30pm 21.8 23.7 18.6 82 2.0 ENE 6 7 3 4 1018.2 1018.1 5.6
29/07:00pm 21.6 23.5 18.6 83 1.9 ENE 6 7 3 4 1017.9 1017.8 5.6
29/06:30pm 21.8 23.4 18.2 80 2.2 ENE 7 13 4 7 1017.6 1017.5 5.6
29/06:00pm 22.6 23.6 18.6 78 2.5 ENE 11 15 6 8 1017.3 1017.2 5.6
29/05:30pm 23.5 23.3 18.6 74 3.1 E 17 24 9 13 1017.0 1016.9 5.6
29/05:00pm 24.1 24.1 19.0 73 3.2 E 17 20 9 11 1016.7 1016.6 5.6
29/04:30pm 24.2 25.3 20.5 80 2.4 ENE 15 20 8 11 1016.5 1016.4 5.6
29/04:26pm 24.0 25.4 20.3 80 2.4 NE 13 19 7 10 1016.5 1016.4 5.6
29/04:00pm 23.2 25.4 20.3 84 1.9 NE 9 13 5 7 1016.5 1016.4 4.0
29/03:41pm 23.6 24.2 19.5 78 2.6 ESE 15 24 8 13 1016.4 1016.3 0.6
29/03:30pm 25.2 24.3 19.1 69 3.9 ESE 22 28 12 15 1016.2 1016.1 0.0
29/03:00pm 27.6 27.3 18.3 57 5.9 NE 17 22 9 12 1015.9 1015.8 0.0
29/02:30pm 27.6 27.4 17.5 54 6.4 NNE 15 20 8 11 1016.0 1015.9 0.0
29/02:00pm 27.5 27.5 18.2 57 5.9 NE 15 20 8 11 1016.3 1016.2 0.0
29/01:30pm 26.9 26.4 17.7 57 5.8 NNE 17 22 9 12 1016.7 1016.6 0.0
29/01:00pm 26.7 27.2 16.6 54 6.2 ENE 9 19 5 10 1016.9 1016.8 0.0
29/12:30pm 26.5 27.3 17.3 57 5.8 ESE 9 15 5 8 1017.3 1017.2 0.0
29/12:00pm 27.4 28.4 17.8 55 6.1 E 9 17 5 9 1017.7 1017.6 0.0
29/11:30am 25.9 26.5 17.8 61 5.1 SSE 11 17 6 9 1018.3 1018.2 0.0
29/11:00am 26.6 27.8 18.2 60 5.3 S 9 17 5 9 1018.6 1018.5 0.0
29/10:30am 25.8 27.7 18.5 64 4.6 SSE 6 15 3 8 1019.0 1018.9 0.0
29/10:00am 25.3 25.7 18.2 64 4.5 ESE 13 19 7 10 1019.2 1019.1 0.0
29/09:30am 24.8 24.9 17.5 64 4.6 ESE 13 20 7 11 1019.5 1019.4 0.0
29/09:00am 24.2 24.8 17.7 67 4.0 SSE 11 17 6 9 1019.5 1019.4 0.0
29/08:30am 23.0 23.9 17.5 71 3.4 SSE 9 13 5 7 1019.6 1019.5 0.0
29/08:00am 21.7 22.9 18.3 81 2.1 S 9 11 5 6 1019.5 1019.4 0.0
29/07:30am 20.5 21.2 17.9 85 1.6 S 11 15 6 8 1019.2 1019.1 0.0
29/07:00am 19.1 20.4 17.2 89 1.2 SSW 6 9 3 5 1019.0 1018.9 0.0
29/06:30am 18.5 19.5 16.8 90 1.0 S 7 9 4 5 1018.6 1018.5 0.0
29/06:00am 18.7 19.9 17.4 92 0.8 S 7 9 4 5 1018.2 1018.1 0.0
29/05:30am 18.3 19.0 17.0 92 0.8 SSW 9 11 5 6 1017.9 1017.8 0.0
29/05:00am 18.4 19.7 17.1 92 0.8 SSW 6 7 3 4 1017.6 1017.5 0.0
29/04:30am 18.3 19.9 16.8 91 0.9 SSW 4 7 2 4 1017.5 1017.4 0.0
29/04:00am 18.4 19.5 17.1 92 0.8 SSW 7 9 4 5 1017.4 1017.3 0.0
29/03:34am 18.2 19.2 16.9 92 0.8 SW 7 9 4 5 1017.4 1017.3 0.0
29/03:30am 18.3 19.4 17.0 92 0.8 SW 7 9 4 5 1017.4 1017.3 0.0
29/03:00am 17.8 19.8 16.1 90 1.0 CALM 0 0 0 0 1017.6 1017.5 0.0
29/02:56am 17.4 19.2 15.6 89 1.1 CALM 0 0 0 0 1017.6 1017.5 0.0
29/02:30am 18.8 19.6 17.3 91 0.9 SSW 9 11 5 6 1017.6 1017.5 0.0
29/02:00am 19.1 20.4 17.6 91 0.9 S 7 11 4 6 1017.7 1017.6 0.0
29/01:30am 18.6 19.6 16.8 89 1.1 SSW 7 7 4 4 1018.1 1018.0 0.0
29/01:00am 19.3 21.3 17.8 91 0.9 SE 4 7 2 4 1018.4 1018.3 0.0
29/12:30am 19.6 21.0 17.7 89 1.2 S 7 9 4 5 1018.6 1018.5 0.0
29/12:00am 19.8 20.6 17.4 86 1.5 SSW 9 11 5 6 1018.6 1018.5 0.0
 
Date/Time
EST
Temp
°C
App
Temp
°C
Dew
Point
°C
Rel
Hum
%
Delta-T
°C
Wind Press
QNH
hPa
Press
MSL
hPa
Rain since
9am
mm
Dir  Spd
km/h
Gust
km/h
Spd
kts
Gust
kts
28/11:30pm 20.6 21.3 18.0 85 1.6 SE 11 13 6 7 1019.0 1018.9 0.0
28/11:00pm 20.9 22.0 17.9 83 1.9 E 9 17 5 9 1019.0 1018.9 0.0
28/10:30pm 21.2 20.8 18.0 82 2.0 ESE 17 22 9 12 1019.1 1019.0 0.0
28/10:00pm 21.2 21.5 17.8 81 2.1 SSE 13 19 7 10 1019.5 1019.4 0.0
28/09:30pm 20.7 21.8 17.1 80 2.2 SSE 7 9 4 5 1019.7 1019.6 0.0
28/09:00pm 20.8 21.6 17.2 80 2.2 SE 9 9 5 5 1019.4 1019.3 0.0
28/08:30pm 21.5 22.9 17.7 79 2.3 SE 7 9 4 5 1019.0 1018.9 0.0
28/08:00pm 21.8 23.0 17.4 76 2.7 SE 7 9 4 5 1018.9 1018.8 0.0
28/07:30pm 22.5 23.0 17.4 73 3.1 E 11 15 6 8 1018.8 1018.7 0.0
28/07:00pm 22.9 23.5 17.6 72 3.3 E 11 15 6 8 1018.7 1018.6 0.0
28/06:30pm 23.2 23.5 17.9 72 3.3 E 13 17 7 9 1018.6 1018.5 0.0
28/06:00pm 23.5 23.3 17.7 70 3.6 ESE 15 22 8 12 1018.1 1018.0 0.0
28/05:30pm 24.2 23.7 17.7 67 4.1 E 17 22 9 12 1018.0 1017.9 0.0
28/05:00pm 25.0 24.4 17.5 63 4.7 ENE 17 24 9 13 1017.6 1017.5 0.0
28/04:30pm 25.3 24.1 17.0 60 5.1 E 19 22 10 12 1017.4 1017.3 0.0
28/04:00pm 26.3 24.6 17.1 57 5.7 ENE 22 30 12 16 1017.1 1017.0 0.0
28/03:30pm 27.5 26.7 17.1 53 6.5 E 17 24 9 13 1017.1 1017.0 0.0
28/03:00pm 26.6 24.6 16.5 54 6.2 E 22 30 12 16 1017.2 1017.1 0.0
28/02:30pm 27.4 26.1 17.3 54 6.3 E 20 26 11 14 1017.2 1017.1 0.0
28/02:00pm 28.6 27.5 17.8 52 6.8 E 20 28 11 15 1017.3 1017.2 0.0
28/01:30pm 28.0 26.6 15.6 46 7.6 ESE 17 22 9 12 1017.5 1017.4 0.0
28/01:00pm 28.5 27.7 17.1 50 7.1 E 17 26 9 14 1017.8 1017.7 0.0
28/12:30pm 27.5 27.2 17.4 54 6.3 SE 15 24 8 13 1018.3 1018.2 0.0
28/12:00pm 27.7 26.8 16.9 51 6.7 ESE 17 26 9 14 1018.8 1018.7 0.0
28/11:30am 27.4 26.8 17.6 55 6.2 SE 17 20 9 11 1019.2 1019.1 0.0
28/11:00am 26.0 25.3 16.5 55 5.8 SE 15 26 8 14 1019.6 1019.5 0.0
28/10:30am 26.0 25.8 16.8 57 5.7 SE 13 24 7 13 1020.0 1019.9 0.0
28/10:00am 25.0 25.0 16.2 58 5.4 SSE 11 19 6 10 1020.3 1020.2 0.0
28/09:30am 24.3 24.1 15.8 59 5.2 SSE 11 17 6 9 1020.6 1020.5 0.0
28/09:00am 23.3 22.7 15.6 62 4.6 SSW 13 17 7 9 1020.4 1020.3 1.8
28/08:30am 22.4 20.8 15.0 63 4.4 SSW 17 20 9 11 1020.4 1020.3 1.8
28/08:00am 21.4 19.7 14.6 65 4.0 SSW 17 22 9 12 1020.3 1020.2 1.8
28/07:30am 20.1 19.1 14.5 70 3.3 SW 13 19 7 10 1020.2 1020.1 1.8
28/07:00am 19.2 18.3 13.8 71 3.1 SSW 11 15 6 8 1020.0 1019.9 1.8
28/06:30am 18.7 17.9 14.0 74 2.7 SSW 11 13 6 7 1019.7 1019.6 1.8
28/06:00am 18.3 17.9 14.0 76 2.5 SW 9 13 5 7 1019.8 1019.7 1.8
28/05:30am 18.2 17.8 14.1 77 2.4 SW 9 13 5 7 1019.6 1019.5 1.8
28/05:00am 18.0 17.2 14.1 78 2.2 SSW 11 15 6 8 1019.2 1019.1 1.8
28/04:30am 18.0 18.2 14.7 81 1.9 SSW 7 9 4 5 1019.2 1019.1 1.8
28/04:00am 17.6 17.8 14.7 83 1.7 WSW 7 9 4 5 1019.2 1019.1 1.8
28/03:30am 17.8 17.5 14.5 81 1.9 SSW 9 13 5 7 1019.0 1018.9 1.8
28/03:00am 18.1 17.8 14.4 79 2.1 SSW 9 15 5 8 1019.0 1018.9 1.8
28/02:30am 17.9 17.6 14.4 80 2.0 SW 9 13 5 7 1019.2 1019.1 1.8
28/02:00am 18.3 18.0 14.4 78 2.2 SW 9 13 5 7 1019.6 1019.5 1.8
28/01:30am 18.6 18.6 14.3 76 2.5 SSW 7 9 4 5 1019.8 1019.7 1.8
28/01:00am 18.9 17.8 14.4 75 2.6 S 13 17 7 9 1019.8 1019.7 1.8
28/12:30am 19.1 18.4 14.4 74 2.7 S 11 15 6 8 1019.9 1019.8 1.8
28/12:00am 19.0 18.3 14.3 74 2.7 S 11 13 6 7 1020.1 1020.0 1.8
 
Date/Time
EST
Temp
°C
App
Temp
°C
Dew
Point
°C
Rel
Hum
%
Delta-T
°C
Wind Press
QNH
hPa
Press
MSL
hPa
Rain since
9am
mm
Dir  Spd
km/h
Gust
km/h
Spd
kts
Gust
kts
27/11:30pm 18.5 18.1 14.0 75 2.6 SSW 9 13 5 7 1020.5 1020.4 1.8
27/11:00pm 18.7 18.4 14.4 76 2.5 SSW 9 11 5 6 1020.9 1020.8 1.8
27/10:30pm 18.8 18.6 14.7 77 2.4 SSW 9 11 5 6 1021.0 1020.9 1.8
27/10:00pm 19.1 19.5 15.4 79 2.2 SSW 7 9 4 5 1021.2 1021.1 1.8
27/09:30pm 18.9 19.7 15.8 82 1.8 SW 6 9 3 5 1021.1 1021.0 1.8
27/09:00pm 19.9 21.1 16.0 78 2.3 S 4 6 2 3 1021.1 1021.0 1.8
27/08:30pm 18.7 20.3 14.8 78 2.3 CALM 0 0 0 0 1021.1 1021.0 1.8
27/08:00pm 20.5 20.6 15.5 73 3.0 S 9 11 5 6 1020.9 1020.8 1.8
27/07:30pm 21.1 21.2 15.6 71 3.3 SSE 9 13 5 7 1020.8 1020.7 1.8
27/07:00pm 21.6 20.5 15.4 68 3.7 SE 15 19 8 10 1020.8 1020.7 1.8
27/06:30pm 21.6 21.0 15.7 69 3.5 SE 13 20 7 11 1020.5 1020.4 1.8
27/06:00pm 21.6 21.9 15.9 70 3.4 SE 9 13 5 7 1020.2 1020.1 1.8
27/05:30pm 21.6 21.9 17.0 75 2.8 SE 11 13 6 7 1020.2 1020.1 1.8
27/05:00pm 21.7 21.6 16.9 74 2.9 SSE 13 19 7 10 1020.0 1019.9 1.8
27/04:30pm 21.8 20.7 17.4 76 2.7 SE 19 30 10 16 1020.0 1019.9 1.8
27/04:00pm 21.7 23.0 18.5 82 2.0 SSE 9 13 5 7 1019.8 1019.7 1.8
27/03:30pm 21.4 22.6 19.1 87 1.5 S 11 15 6 8 1020.0 1019.9 1.8

Latest Capital City Observations: Canberra | Sydney | Melbourne | Brisbane | Adelaide | Perth | Hobart | Darwin

Other formats

Comma delimited format used in spreadsheet applications
http://www.bom.gov.au/fwo/IDQ60901/IDQ60901.94575.axf

JavaScript Object Notation format (JSON) in row-major order
http://www.bom.gov.au/fwo/IDQ60901/IDQ60901.94575.json

Data quality

Most of these data are generated automatically and are frequently updated. Quality checks on data are not normally performed. It is possible for incorrect values to appear. Refer to information at About Latest Weather Observations and please check the disclaimer before using these data.